Terminal Aerodrome Forecast
Issued by NWS Sioux Falls, SD

Home | Current Version | Previous Version | Text Only | Print | Product List | Glossary On
Versions: 1 2 3 4 5 6 7 8 9 10 11 12 13 14 15 16 17 18 19 20 21 22
000
FTUS43 KFSD 190520
TAFSUX
TAF
KSUX 190520Z 1906/2006 15009KT P6SM SCT250
     FM191200 16009KT P6SM BKN200 WS012/23044KT
     FM191500 20012G18KT P6SM BKN150
     FM191900 24011KT P6SM SKC
     FM192300 30005KT P6SM SKC=

USA.gov is the U.S. government's official web portal to all federal, state and local government web resources and services.